Time;durP1;ratioP1;P1;durP2;ratioP2;P2;SDS_P1;SDS_P2;PMS_P1;PMS_P2;Temp;Humidity;BMP_temperature;BMP_pressure;BME280_temperature;BME280_humidity;BME280_pressure;Samples;Min_cycle;Max_cycle;Signal;HPM_P1;HPM_P2
2023/06/28 00:01:07;;;;;;;15.10;4.05;;;17.70;99.90;;;;;;4935611;29;20655;-76
2023/06/28 00:03:33;;;;;;;16.60;4.20;;;17.70;99.90;;;;;;4918436;29;20219;-77
2023/06/28 00:05:59;;;;;;;12.30;4.03;;;17.70;99.90;;;;;;4913917;29;20191;-83
2023/06/28 00:08:24;;;;;;;11.27;4.10;;;17.60;99.90;;;;;;4931924;29;20198;-75
2023/06/28 00:10:50;;;;;;;11.65;4.45;;;17.60;99.90;;;;;;4908736;29;20183;-76
2023/06/28 00:13:17;;;;;;;11.82;4.40;;;17.60;99.90;;;;;;4899735;29;20624;-77
2023/06/28 00:15:43;;;;;;;15.10;4.55;;;17.60;99.90;;;;;;4916862;29;20176;-78
2023/06/28 00:18:08;;;;;;;11.10;4.40;;;17.60;99.90;;;;;;4933769;29;20179;-77
2023/06/28 00:20:35;;;;;;;13.15;3.97;;;17.60;99.90;;;;;;4930528;29;20623;-76
2023/06/28 00:23:00;;;;;;;14.95;4.28;;;17.50;99.90;;;;;;4902704;29;20613;-76
2023/06/28 00:25:26;;;;;;;12.70;4.10;;;17.60;99.90;;;;;;4927527;29;20256;-76
2023/06/28 00:27:52;;;;;;;10.18;3.92;;;17.50;99.90;;;;;;4918620;29;20280;-76
2023/06/28 00:30:18;;;;;;;12.27;4.28;;;17.50;99.90;;;;;;4916234;29;20211;-76
2023/06/28 00:32:43;;;;;;;14.02;4.15;;;17.50;99.90;;;;;;4905398;29;20191;-76
2023/06/28 00:35:09;;;;;;;11.68;4.18;;;17.50;99.90;;;;;;4918127;29;20230;-76
2023/06/28 00:37:35;;;;;;;9.52;3.78;;;17.50;99.90;;;;;;4920649;29;20775;-76
2023/06/28 00:40:02;;;;;;;15.52;4.00;;;17.40;99.90;;;;;;4914787;29;20282;-77
2023/06/28 00:42:29;;;;;;;11.85;3.83;;;17.40;99.90;;;;;;4917931;29;20195;-75
2023/06/28 00:44:55;;;;;;;11.65;3.78;;;17.40;99.90;;;;;;4918035;29;20309;-75
2023/06/28 00:47:22;;;;;;;12.88;3.58;;;17.40;99.90;;;;;;4930590;29;20196;-76
2023/06/28 00:49:50;;;;;;;10.07;3.83;;;17.40;99.90;;;;;;4929016;29;20180;-75
2023/06/28 00:52:17;;;;;;;14.20;4.10;;;17.40;99.90;;;;;;4936962;29;20195;-75
2023/06/28 00:54:43;;;;;;;13.43;4.13;;;17.40;99.90;;;;;;4937191;29;20196;-77
2023/06/28 00:57:09;;;;;;;12.20;3.58;;;17.40;99.90;;;;;;4937929;29;20183;-76
2023/06/28 00:59:35;;;;;;;9.38;3.78;;;17.40;99.90;;;;;;4931128;29;20687;-81
2023/06/28 01:02:02;;;;;;;11.32;3.67;;;17.40;99.90;;;;;;4937739;29;20183;-77
2023/06/28 01:04:28;;;;;;;10.23;3.97;;;17.40;99.90;;;;;;4937102;29;20229;-76
2023/06/28 01:06:59;;;;;;;13.43;3.80;;;17.40;99.90;;;;;;4931632;29;20616;-78
2023/06/28 01:09:27;;;;;;;9.35;3.67;;;17.30;99.90;;;;;;4933306;29;20237;-76
2023/06/28 01:11:55;;;;;;;12.35;4.18;;;17.40;99.90;;;;;;4917634;29;20619;-80
2023/06/28 01:14:23;;;;;;;11.38;3.92;;;17.40;99.90;;;;;;4929909;29;20694;-76
2023/06/28 01:16:54;;;;;;;11.02;3.92;;;17.30;99.90;;;;;;4937908;29;20660;-75
2023/06/28 01:19:24;;;;;;;12.07;4.60;;;17.40;99.90;;;;;;4921396;29;20214;-75
2023/06/28 01:22:00;;;;;;;13.50;4.07;;;17.40;99.90;;;;;;4933695;29;21047;-76
2023/06/28 01:24:26;;;;;;;13.00;3.90;;;17.40;99.90;;;;;;4933864;29;20249;-76
2023/06/28 01:26:54;;;;;;;13.40;4.38;;;17.40;99.90;;;;;;4920639;29;20220;-75
2023/06/28 01:29:24;;;;;;;15.25;4.15;;;17.30;99.90;;;;;;4924971;29;20187;-76
2023/06/28 01:31:56;;;;;;;12.75;4.28;;;17.40;99.90;;;;;;4920449;29;20607;-76
2023/06/28 01:34:29;;;;;;;10.98;4.40;;;17.30;99.90;;;;;;4917676;29;20291;-75
2023/06/28 01:36:57;;;;;;;13.75;4.70;;;17.30;99.90;;;;;;4930098;29;20238;-76
2023/06/28 01:39:25;;;;;;;17.30;4.53;;;17.30;99.90;;;;;;4920760;29;20206;-77
2023/06/28 01:41:52;;;;;;;10.18;4.05;;;17.30;99.90;;;;;;4936788;29;21269;-76
2023/06/28 01:44:18;;;;;;;10.50;4.50;;;17.30;99.90;;;;;;4915264;29;20226;-76
2023/06/28 01:46:44;;;;;;;17.05;4.70;;;17.20;99.90;;;;;;4938095;29;20258;-76
2023/06/28 01:49:11;;;;;;;10.80;4.38;;;17.30;99.90;;;;;;4936486;29;20203;-76
2023/06/28 01:51:37;;;;;;;13.73;4.32;;;17.30;99.90;;;;;;4937929;29;20266;-76
2023/06/28 01:54:03;;;;;;;10.82;4.50;;;17.20;99.90;;;;;;4937983;29;20190;-76
2023/06/28 01:56:29;;;;;;;11.50;4.30;;;17.20;99.90;;;;;;4920842;29;20179;-76
2023/06/28 01:58:55;;;;;;;9.60;4.38;;;17.20;99.90;;;;;;4920742;29;20183;-75
2023/06/28 02:01:22;;;;;;;11.45;4.80;;;17.20;99.90;;;;;;4937545;29;20188;-75
2023/06/28 02:03:47;;;;;;;11.25;5.07;;;17.20;99.90;;;;;;4934657;29;20683;-77
2023/06/28 02:06:14;;;;;;;13.38;5.00;;;17.20;99.90;;;;;;4934008;29;20253;-78
2023/06/28 02:08:40;;;;;;;16.40;4.65;;;17.20;99.90;;;;;;4937398;29;20184;-76
2023/06/28 02:11:06;;;;;;;12.70;4.50;;;17.20;99.90;;;;;;4920337;29;20670;-77
2023/06/28 02:13:32;;;;;;;10.55;4.68;;;17.10;99.90;;;;;;4920323;29;20274;-78
2023/06/28 02:15:58;;;;;;;10.98;4.38;;;17.10;99.90;;;;;;4933555;29;20280;-75
2023/06/28 02:18:26;;;;;;;13.13;4.40;;;17.10;99.90;;;;;;4934521;29;20183;-77
2023/06/28 02:20:52;;;;;;;12.52;4.55;;;17.10;99.90;;;;;;4934939;29;20184;-76
2023/06/28 02:23:20;;;;;;;11.27;4.57;;;17.10;99.90;;;;;;4920094;29;20310;-78
2023/06/28 02:25:45;;;;;;;16.40;4.85;;;17.10;99.90;;;;;;4919351;29;20191;-77
2023/06/28 02:28:11;;;;;;;13.63;4.63;;;17.10;99.90;;;;;;4916019;29;20194;-78
2023/06/28 02:30:37;;;;;;;11.02;4.57;;;17.10;99.90;;;;;;4932501;29;20234;-77
2023/06/28 02:33:03;;;;;;;12.95;4.38;;;17.10;99.90;;;;;;4920243;29;20187;-77
2023/06/28 02:35:29;;;;;;;13.93;4.93;;;17.10;99.90;;;;;;4919596;29;20247;-76
2023/06/28 02:37:54;;;;;;;13.90;5.22;;;17.00;99.90;;;;;;4916562;29;20242;-78
2023/06/28 02:40:21;;;;;;;13.02;4.72;;;17.10;99.90;;;;;;4928309;29;20202;-78
2023/06/28 02:42:47;;;;;;;9.90;5.35;;;17.10;99.90;;;;;;4918933;29;20216;-76
2023/06/28 02:45:13;;;;;;;13.43;4.80;;;17.10;99.90;;;;;;4917210;29;20735;-76
2023/06/28 02:47:38;;;;;;;14.27;4.88;;;17.10;99.90;;;;;;4885630;29;20186;-76
2023/06/28 02:50:06;;;;;;;13.15;4.65;;;17.10;99.90;;;;;;4934675;29;20527;-76
2023/06/28 02:52:37;;;;;;;14.82;4.70;;;17.10;99.90;;;;;;4917008;29;20258;-76
2023/06/28 02:55:07;;;;;;;11.23;4.70;;;17.10;99.90;;;;;;4916846;29;20196;-77
2023/06/28 02:57:33;;;;;;;11.00;4.75;;;17.10;99.90;;;;;;4901066;29;20222;-77
2023/06/28 03:00:08;;;;;;;13.50;5.00;;;17.10;99.90;;;;;;4900705;29;20218;-76
2023/06/28 03:02:34;;;;;;;15.70;5.25;;;17.10;99.90;;;;;;4930193;29;20266;-76
2023/06/28 03:05:00;;;;;;;12.95;5.95;;;17.10;99.90;;;;;;4935174;29;20219;-78
2023/06/28 03:07:26;;;;;;;7.22;4.53;;;17.10;99.90;;;;;;4919336;29;20704;-77
2023/06/28 03:09:53;;;;;;;14.32;5.45;;;17.10;99.90;;;;;;4919711;29;20559;-76
2023/06/28 03:12:18;;;;;;;18.13;5.63;;;17.10;99.90;;;;;;4911268;29;20188;-78
2023/06/28 03:14:44;;;;;;;16.55;5.32;;;17.10;99.90;;;;;;4906515;29;20283;-77
2023/06/28 03:17:10;;;;;;;22.50;5.25;;;17.00;99.90;;;;;;4917571;29;20195;-76
2023/06/28 03:19:36;;;;;;;11.75;5.28;;;17.00;99.90;;;;;;4917532;29;20700;-79
2023/06/28 03:22:03;;;;;;;9.48;5.20;;;17.00;99.90;;;;;;4894700;29;20728;-77
2023/06/28 03:24:28;;;;;;;13.80;5.47;;;17.00;99.90;;;;;;4924389;29;20367;-84
2023/06/28 03:26:55;;;;;;;12.02;5.18;;;17.00;99.90;;;;;;4935412;29;20282;-76
2023/06/28 03:29:22;;;;;;;12.65;5.38;;;17.00;99.90;;;;;;4936922;29;20184;-75
2023/06/28 03:31:48;;;;;;;18.85;5.75;;;17.00;99.90;;;;;;4933561;29;20323;-76
2023/06/28 03:34:14;;;;;;;10.77;5.32;;;16.90;99.90;;;;;;4903190;29;20259;-76
2023/06/28 03:36:43;;;;;;;18.58;5.90;;;16.90;99.90;;;;;;4902246;29;20238;-79
2023/06/28 03:39:09;;;;;;;11.45;5.70;;;17.00;99.90;;;;;;4933980;29;20226;-76
2023/06/28 03:41:35;;;;;;;12.95;5.57;;;17.00;99.90;;;;;;4919904;29;20183;-77
2023/06/28 03:44:01;;;;;;;14.52;5.85;;;17.00;99.90;;;;;;4919407;29;20226;-76
2023/06/28 03:46:27;;;;;;;11.48;5.50;;;16.90;99.90;;;;;;4919706;29;20190;-77
2023/06/28 03:48:53;;;;;;;10.40;5.07;;;16.90;99.90;;;;;;4935622;29;20199;-76
2023/06/28 03:51:19;;;;;;;10.07;4.80;;;16.90;99.90;;;;;;4935444;29;20551;-76
2023/06/28 03:53:45;;;;;;;10.18;4.70;;;16.80;99.90;;;;;;4902087;29;20654;-76
2023/06/28 03:56:10;;;;;;;10.27;4.70;;;16.90;99.90;;;;;;4900832;29;20191;-76
2023/06/28 03:58:36;;;;;;;13.00;4.95;;;16.80;99.90;;;;;;4917748;29;20190;-80
2023/06/28 04:01:02;;;;;;;9.90;4.70;;;16.80;99.90;;;;;;4919532;29;20179;-76
2023/06/28 04:03:28;;;;;;;7.45;4.25;;;16.80;99.90;;;;;;4932780;29;20215;-76
2023/06/28 04:05:54;;;;;;;10.18;4.57;;;16.80;99.90;;;;;;4936588;29;20194;-75
2023/06/28 04:08:19;;;;;;;9.10;4.60;;;16.80;99.90;;;;;;4936018;29;20675;-76
2023/06/28 04:10:45;;;;;;;12.93;4.88;;;16.80;99.90;;;;;;4903573;29;20569;-76
2023/06/28 04:13:11;;;;;;;13.57;4.82;;;16.80;99.90;;;;;;4933314;29;20198;-78
2023/06/28 04:15:37;;;;;;;10.50;4.43;;;16.80;99.90;;;;;;4918374;29;20187;-77
2023/06/28 04:18:03;;;;;;;7.45;3.78;;;16.80;99.90;;;;;;4924384;29;20194;-77
2023/06/28 04:20:29;;;;;;;8.10;3.90;;;16.80;99.90;;;;;;4936001;29;20191;-76
2023/06/28 04:22:54;;;;;;;10.73;3.95;;;16.80;99.90;;;;;;4934175;29;22020;-78
2023/06/28 04:25:20;;;;;;;7.50;3.45;;;16.80;99.90;;;;;;4929696;29;20187;-77
2023/06/28 04:27:46;;;;;;;10.95;3.60;;;16.80;99.90;;;;;;4938012;29;20644;-77
2023/06/28 04:30:11;;;;;;;8.70;3.60;;;16.80;99.90;;;;;;4939068;29;20184;-76
2023/06/28 04:32:37;;;;;;;8.43;3.58;;;16.80;99.90;;;;;;4902539;29;20203;-76
2023/06/28 04:35:03;;;;;;;7.90;3.53;;;16.80;99.90;;;;;;4906759;29;20592;-75
2023/06/28 04:37:31;;;;;;;9.93;3.45;;;16.80;99.90;;;;;;4931629;29;20230;-76
2023/06/28 04:39:58;;;;;;;9.85;3.83;;;16.80;99.90;;;;;;4921164;29;20298;-76
2023/06/28 04:42:24;;;;;;;8.18;3.40;;;16.80;99.90;;;;;;4919738;29;20183;-79
2023/06/28 04:44:50;;;;;;;9.35;4.03;;;16.80;99.90;;;;;;4925327;29;20215;-76
2023/06/28 04:47:17;;;;;;;8.88;3.70;;;16.80;99.90;;;;;;4931066;29;20613;-76
2023/06/28 04:49:48;;;;;;;5.53;3.40;;;16.80;99.90;;;;;;4928607;29;20213;-78
2023/06/28 04:52:15;;;;;;;7.30;3.50;;;16.80;99.90;;;;;;4919812;29;20191;-77
2023/06/28 04:54:41;;;;;;;9.13;3.20;;;16.80;99.90;;;;;;4938638;29;20191;-76
2023/06/28 04:57:07;;;;;;;6.43;3.35;;;16.70;99.90;;;;;;4930862;29;20730;-76
2023/06/28 04:59:33;;;;;;;6.28;3.50;;;16.70;99.90;;;;;;4933788;29;20201;-76
2023/06/28 05:01:59;;;;;;;9.90;3.55;;;16.70;99.90;;;;;;4918066;29;20266;-76
2023/06/28 05:04:25;;;;;;;7.95;3.28;;;16.70;99.90;;;;;;4938166;29;20218;-78
2023/06/28 05:06:53;;;;;;;7.18;3.60;;;16.70;99.90;;;;;;4935768;29;20640;-77
2023/06/28 05:09:19;;;;;;;14.15;4.05;;;16.70;99.90;;;;;;4936322;29;20629;-80
2023/06/28 05:11:45;;;;;;;7.75;3.88;;;16.70;99.90;;;;;;4935005;29;20714;-77
2023/06/28 05:14:11;;;;;;;6.95;4.05;;;16.70;99.90;;;;;;4938140;29;20290;-78
2023/06/28 05:16:36;;;;;;;6.78;3.80;;;16.80;99.90;;;;;;4916790;29;20202;-75
2023/06/28 05:19:02;;;;;;;7.85;4.15;;;16.80;99.90;;;;;;4926375;29;20196;-75
2023/06/28 05:21:28;;;;;;;8.48;3.97;;;16.80;99.90;;;;;;4925012;29;20184;-78
2023/06/28 05:23:53;;;;;;;5.80;3.90;;;16.80;99.90;;;;;;4919819;29;20226;-78
2023/06/28 05:26:19;;;;;;;12.02;4.53;;;16.80;99.90;;;;;;4918944;29;20180;-78
2023/06/28 05:28:45;;;;;;;9.05;3.70;;;16.70;99.90;;;;;;4914337;29;20238;-78
2023/06/28 05:31:12;;;;;;;6.18;4.30;;;16.80;99.90;;;;;;4899305;29;20206;-76
2023/06/28 05:33:40;;;;;;;8.30;3.90;;;16.80;99.90;;;;;;4921419;29;20220;-77
2023/06/28 05:36:06;;;;;;;6.68;4.47;;;16.70;99.90;;;;;;4937626;29;20187;-76
2023/06/28 05:38:32;;;;;;;7.93;4.20;;;16.80;99.90;;;;;;4918638;29;20231;-77
2023/06/28 05:41:14;;;;;;;8.15;3.95;;;16.80;99.90;;;;;;4933814;29;20197;-76
2023/06/28 05:43:43;;;;;;;8.70;4.40;;;16.80;99.90;;;;;;4931472;29;20211;-76
2023/06/28 05:46:09;;;;;;;10.15;4.20;;;16.80;99.90;;;;;;4932705;29;20211;-76
2023/06/28 05:48:35;;;;;;;14.00;4.53;;;16.80;99.90;;;;;;4927256;29;20216;-77
2023/06/28 05:51:01;;;;;;;8.48;4.00;;;16.80;99.90;;;;;;4918541;29;20215;-78
2023/06/28 05:53:29;;;;;;;8.32;4.38;;;16.80;99.90;;;;;;4926431;29;20274;-80
2023/06/28 05:55:55;;;;;;;10.43;4.45;;;16.90;99.90;;;;;;4900437;29;20571;-79
2023/06/28 05:58:21;;;;;;;8.30;4.45;;;16.90;99.90;;;;;;4929592;29;20605;-80
2023/06/28 06:00:47;;;;;;;5.88;3.88;;;16.90;99.90;;;;;;4918136;29;20191;-78
2023/06/28 06:03:13;;;;;;;9.00;4.43;;;16.90;99.90;;;;;;4937185;29;20178;-78
2023/06/28 06:05:39;;;;;;;6.68;3.90;;;16.90;99.90;;;;;;4932923;29;20223;-76
2023/06/28 06:08:05;;;;;;;10.27;4.20;;;16.90;99.90;;;;;;4933394;29;20231;-77
2023/06/28 06:10:32;;;;;;;5.93;4.10;;;17.00;99.90;;;;;;4937023;29;20251;-76
2023/06/28 06:12:57;;;;;;;7.53;4.22;;;17.00;99.90;;;;;;4919866;29;20270;-75
2023/06/28 06:15:23;;;;;;;7.70;4.38;;;17.00;99.90;;;;;;4936245;29;20286;-76
2023/06/28 06:17:50;;;;;;;8.20;4.38;;;17.00;99.90;;;;;;4925527;29;20184;-76
2023/06/28 06:20:16;;;;;;;6.68;4.22;;;17.10;99.90;;;;;;4911084;29;20188;-82
2023/06/28 06:22:45;;;;;;;11.13;4.05;;;17.10;99.90;;;;;;4901949;29;20196;-78
2023/06/28 06:25:11;;;;;;;8.75;4.50;;;17.10;99.90;;;;;;4937229;29;20219;-77
2023/06/28 06:27:37;;;;;;;8.82;4.22;;;17.10;99.90;;;;;;4928148;29;20242;-78
2023/06/28 06:30:04;;;;;;;8.32;3.97;;;17.10;99.90;;;;;;4924366;29;20641;-77
2023/06/28 06:32:29;;;;;;;12.43;5.00;;;17.10;99.90;;;;;;4918405;29;20640;-76
2023/06/28 06:34:58;;;;;;;8.70;4.25;;;17.10;99.90;;;;;;4936198;29;20191;-76
2023/06/28 06:37:24;;;;;;;10.13;5.20;;;17.10;99.90;;;;;;4930059;29;20333;-76
2023/06/28 06:39:50;;;;;;;8.90;4.80;;;17.10;99.90;;;;;;4903747;29;20286;-77
2023/06/28 06:42:16;;;;;;;14.65;5.38;;;17.20;99.90;;;;;;4932876;29;20644;-77
2023/06/28 06:44:42;;;;;;;12.32;5.20;;;17.10;99.90;;;;;;4931760;29;20219;-77
2023/06/28 06:47:07;;;;;;;9.27;5.05;;;17.10;99.90;;;;;;4900626;29;20195;-76
2023/06/28 06:49:33;;;;;;;10.40;5.22;;;17.10;99.90;;;;;;4917169;29;20211;-78
2023/06/28 06:51:59;;;;;;;11.20;5.57;;;17.10;99.90;;;;;;4920650;29;20187;-81
2023/06/28 06:54:29;;;;;;;14.32;5.72;;;17.20;99.90;;;;;;4915997;29;20214;-79
2023/06/28 06:56:58;;;;;;;12.73;6.13;;;17.20;99.90;;;;;;4936818;29;20180;-78
2023/06/28 06:59:23;;;;;;;15.52;7.05;;;17.20;99.90;;;;;;4928232;29;20275;-77
2023/06/28 07:01:50;;;;;;;15.02;7.25;;;17.20;99.90;;;;;;4923614;29;20207;-77
2023/06/28 07:04:17;;;;;;;15.93;7.38;;;17.20;99.90;;;;;;4898207;29;20216;-76
2023/06/28 07:06:44;;;;;;;14.40;7.47;;;17.20;99.90;;;;;;4918738;29;20190;-76
2023/06/28 07:09:10;;;;;;;13.32;7.45;;;17.20;99.90;;;;;;4936241;29;20670;-76
2023/06/28 07:11:36;;;;;;;16.02;7.60;;;17.20;99.90;;;;;;4936833;29;20266;-76
2023/06/28 07:14:02;;;;;;;16.73;8.60;;;17.20;99.90;;;;;;4932712;29;20191;-77
2023/06/28 07:16:28;;;;;;;16.20;7.85;;;17.20;99.90;;;;;;4934451;29;20202;-77
2023/06/28 07:18:54;;;;;;;15.15;8.07;;;17.20;99.90;;;;;;4911447;29;20230;-78
2023/06/28 07:21:20;;;;;;;18.50;8.40;;;17.20;99.90;;;;;;4919126;29;20180;-79
2023/06/28 07:23:46;;;;;;;19.73;8.50;;;17.30;99.90;;;;;;4935908;29;20718;-78
2023/06/28 07:26:14;;;;;;;16.30;8.35;;;17.30;99.90;;;;;;4936334;29;20175;-78
2023/06/28 07:28:41;;;;;;;18.05;8.60;;;17.30;99.90;;;;;;4919110;29;20648;-77
2023/06/28 07:31:07;;;;;;;21.02;8.73;;;17.30;99.90;;;;;;4935022;29;20190;-79
2023/06/28 07:33:33;;;;;;;16.25;8.80;;;17.30;99.90;;;;;;4916684;29;20188;-78
2023/06/28 07:35:58;;;;;;;18.40;8.98;;;17.30;99.90;;;;;;4921023;29;20175;-77
2023/06/28 07:38:24;;;;;;;18.50;9.35;;;17.40;99.90;;;;;;4934800;29;20233;-78
2023/06/28 07:40:51;;;;;;;16.15;8.98;;;17.40;99.90;;;;;;4909621;29;20196;-76
2023/06/28 07:43:18;;;;;;;16.33;8.65;;;17.40;99.90;;;;;;4918407;29;20184;-77
2023/06/28 07:45:44;;;;;;;15.32;7.70;;;17.40;99.90;;;;;;4910739;29;20271;-77
2023/06/28 07:48:10;;;;;;;16.00;8.40;;;17.40;99.90;;;;;;4935549;29;20535;-77
2023/06/28 07:50:36;;;;;;;15.75;8.80;;;17.40;99.90;;;;;;4935846;29;20191;-77
2023/06/28 07:53:02;;;;;;;16.60;9.50;;;17.40;99.90;;;;;;4935711;29;20179;-78
2023/06/28 07:55:28;;;;;;;11.98;8.15;;;17.40;99.90;;;;;;4935481;29;20274;-79
2023/06/28 07:57:55;;;;;;;14.38;8.40;;;17.40;99.90;;;;;;4919143;29;20187;-77
2023/06/28 08:00:21;;;;;;;15.43;8.20;;;17.40;99.90;;;;;;4918644;29;20187;-77
2023/06/28 08:02:48;;;;;;;13.68;8.38;;;17.40;99.90;;;;;;4923168;29;20668;-79
2023/06/28 08:05:14;;;;;;;16.95;7.95;;;17.40;99.90;;;;;;4935336;29;20771;-77
2023/06/28 08:07:40;;;;;;;14.90;8.52;;;17.50;99.90;;;;;;4934634;29;20191;-77
2023/06/28 08:10:06;;;;;;;16.27;8.23;;;17.50;99.90;;;;;;4935399;29;20183;-77
2023/06/28 08:12:32;;;;;;;13.65;7.93;;;17.50;99.90;;;;;;4933941;29;20198;-76
2023/06/28 08:14:58;;;;;;;13.75;8.40;;;17.50;99.90;;;;;;4918415;29;20192;-77
2023/06/28 08:17:24;;;;;;;17.73;9.32;;;17.60;99.90;;;;;;4918589;29;20548;-77
2023/06/28 08:19:50;;;;;;;15.98;8.05;;;17.60;99.90;;;;;;4918316;29;20199;-77
2023/06/28 08:22:15;;;;;;;14.90;8.98;;;17.60;99.90;;;;;;4929972;29;20640;-77
2023/06/28 08:24:41;;;;;;;13.77;8.20;;;17.70;99.90;;;;;;4922768;29;20656;-86
2023/06/28 08:27:07;;;;;;;15.38;7.97;;;17.70;99.90;;;;;;4902670;29;20250;-77
2023/06/28 08:29:33;;;;;;;15.63;7.82;;;17.70;99.90;;;;;;4918946;29;20572;-78
2023/06/28 08:31:59;;;;;;;12.60;7.72;;;17.70;99.90;;;;;;4935887;29;20730;-78
2023/06/28 08:34:25;;;;;;;12.57;8.60;;;17.70;99.90;;;;;;4900752;29;20188;-79
2023/06/28 08:36:50;;;;;;;18.88;8.40;;;17.70;99.90;;;;;;4924378;29;20712;-80
2023/06/28 08:39:16;;;;;;;14.88;7.93;;;17.70;99.90;;;;;;4935703;29;20214;-78
2023/06/28 08:41:43;;;;;;;17.30;8.07;;;17.70;99.90;;;;;;4922620;29;20195;-77
2023/06/28 08:44:12;;;;;;;15.25;7.97;;;17.70;99.90;;;;;;4899726;29;20211;-77
2023/06/28 08:46:41;;;;;;;15.38;8.38;;;17.70;99.90;;;;;;4916798;29;20176;-77
2023/06/28 08:49:07;;;;;;;13.85;8.30;;;17.80;99.90;;;;;;4921943;29;20296;-77
2023/06/28 08:51:33;;;;;;;13.13;7.88;;;17.80;99.90;;;;;;4935043;29;20184;-77
2023/06/28 08:53:59;;;;;;;15.27;8.07;;;17.80;99.90;;;;;;4933711;29;20187;-77
2023/06/28 08:56:27;;;;;;;12.88;8.27;;;17.80;99.90;;;;;;4918840;29;20191;-77
2023/06/28 08:58:54;;;;;;;16.80;8.05;;;17.90;99.90;;;;;;4934889;29;20286;-78
2023/06/28 09:01:23;;;;;;;15.38;8.93;;;17.90;99.90;;;;;;4918372;29;20183;-79
2023/06/28 09:03:50;;;;;;;13.10;8.38;;;17.90;99.90;;;;;;4934868;29;20215;-81
2023/06/28 09:06:16;;;;;;;15.35;8.82;;;17.90;99.90;;;;;;4931883;29;20302;-78
2023/06/28 09:08:43;;;;;;;17.27;8.38;;;17.90;99.90;;;;;;4919397;29;20627;-78
2023/06/28 09:11:11;;;;;;;16.58;8.95;;;17.90;99.90;;;;;;4902603;29;20207;-79
2023/06/28 09:13:38;;;;;;;16.45;8.55;;;17.90;99.90;;;;;;4937200;29;20274;-76
2023/06/28 09:16:09;;;;;;;16.13;9.10;;;17.90;99.90;;;;;;4939182;29;20207;-78
2023/06/28 09:18:35;;;;;;;18.70;9.35;;;17.90;99.90;;;;;;4921608;29;20583;-78
2023/06/28 09:21:01;;;;;;;16.55;9.07;;;17.90;99.90;;;;;;4931828;29;20232;-79
2023/06/28 09:23:28;;;;;;;13.68;8.43;;;17.90;99.90;;;;;;4932205;29;20584;-78
2023/06/28 09:25:55;;;;;;;14.95;9.07;;;17.80;99.90;;;;;;4906117;29;20175;-78
2023/06/28 09:28:30;;;;;;;14.05;9.20;;;17.80;99.90;;;;;;4937342;29;20273;-78
2023/06/28 09:30:57;;;;;;;20.30;10.30;;;17.80;99.90;;;;;;4920690;29;20281;-78
2023/06/28 09:33:24;;;;;;;22.00;11.27;;;17.90;99.90;;;;;;4921145;29;20187;-80
2023/06/28 09:36:10;;;;;;;15.00;10.07;;;17.90;99.90;;;;;;4937975;29;20184;-78
2023/06/28 09:38:44;;;;;;;16.33;10.82;;;17.90;99.90;;;;;;4938090;29;20227;-78
2023/06/28 09:41:10;;;;;;;18.25;11.02;;;17.90;99.90;;;;;;4923376;29;20327;-79
2023/06/28 09:43:37;;;;;;;19.15;11.95;;;17.90;99.90;;;;;;4938058;29;20706;-79
2023/06/28 09:46:14;;;;;;;19.17;12.27;;;17.80;99.90;;;;;;4920929;29;20675;-78
2023/06/28 09:48:44;;;;;;;22.35;13.25;;;17.90;99.90;;;;;;4937615;29;20265;-79
2023/06/28 09:51:11;;;;;;;18.15;11.75;;;17.90;99.90;;;;;;4934562;29;20187;-82
2023/06/28 09:53:56;;;;;;;20.13;12.05;;;17.90;99.90;;;;;;4918440;29;20347;-79
2023/06/28 09:56:35;;;;;;;20.33;12.65;;;17.90;99.90;;;;;;4902320;29;20247;-79
2023/06/28 09:59:05;;;;;;;23.20;13.05;;;17.90;99.90;;;;;;4901642;29;20246;-78
2023/06/28 10:01:33;;;;;;;17.40;12.85;;;17.90;99.90;;;;;;4901759;29;20291;-79
2023/06/28 10:04:00;;;;;;;20.60;14.07;;;18.00;99.90;;;;;;4926715;29;20207;-77
2023/06/28 10:06:28;;;;;;;21.20;13.75;;;18.00;99.90;;;;;;4920316;29;20194;-78
2023/06/28 10:08:54;;;;;;;21.50;13.85;;;18.00;99.90;;;;;;4936807;29;20245;-78
2023/06/28 10:11:21;;;;;;;20.40;14.32;;;18.00;99.90;;;;;;4919485;29;20195;-81
2023/06/28 10:13:48;;;;;;;22.17;14.40;;;18.00;99.90;;;;;;4912950;29;20650;-81
2023/06/28 10:16:18;;;;;;;19.67;13.73;;;18.00;99.90;;;;;;4915095;29;20207;-80
2023/06/28 10:18:44;;;;;;;27.40;14.98;;;18.00;99.90;;;;;;4937005;29;20243;-79
2023/06/28 10:21:10;;;;;;;24.17;14.90;;;18.00;99.90;;;;;;4919725;29;20184;-79
2023/06/28 10:23:39;;;;;;;22.60;14.70;;;18.00;99.90;;;;;;4937423;29;20254;-78
2023/06/28 10:26:05;;;;;;;23.17;14.30;;;18.10;99.90;;;;;;4919756;29;20180;-79
2023/06/28 10:28:35;;;;;;;26.10;14.25;;;18.10;99.90;;;;;;4936807;29;20190;-79
2023/06/28 10:31:04;;;;;;;22.02;14.23;;;18.10;99.90;;;;;;4936911;29;20239;-83
2023/06/28 10:33:33;;;;;;;22.73;14.43;;;18.10;99.90;;;;;;4937633;29;20188;-82
2023/06/28 10:36:02;;;;;;;19.40;14.30;;;18.10;99.90;;;;;;4916741;29;20180;-84
2023/06/28 10:38:38;;;;;;;19.20;14.35;;;18.10;99.90;;;;;;4918789;29;20235;-86
2023/06/28 10:41:05;;;;;;;24.02;15.00;;;18.10;99.90;;;;;;4906714;29;20195;-81
2023/06/28 10:43:31;;;;;;;25.00;15.02;;;18.10;99.90;;;;;;4936694;29;20211;-83
2023/06/28 10:45:57;;;;;;;23.73;15.32;;;18.20;99.90;;;;;;4936491;29;20192;-82
2023/06/28 10:48:26;;;;;;;24.02;15.43;;;18.10;99.90;;;;;;4937306;29;20647;-82
2023/06/28 10:50:52;;;;;;;27.45;16.55;;;18.20;99.90;;;;;;4936076;29;20191;-81
2023/06/28 10:53:25;;;;;;;23.88;16.08;;;18.20;99.90;;;;;;4900171;29;20188;-80
2023/06/28 10:56:10;;;;;;;27.88;16.42;;;18.20;99.90;;;;;;4900797;29;20188;-83
2023/06/28 10:58:43;;;;;;;24.60;15.85;;;18.20;99.90;;;;;;4918152;29;20255;-82
2023/06/28 11:01:11;;;;;;;25.02;16.70;;;18.20;99.90;;;;;;4907244;29;20183;-82
2023/06/28 11:03:44;;;;;;;22.63;15.60;;;18.10;99.90;;;;;;4928428;29;20306;-82
2023/06/28 11:06:12;;;;;;;29.00;15.43;;;18.10;99.90;;;;;;4918859;29;20628;-81
2023/06/28 11:08:44;;;;;;;26.73;15.70;;;18.10;99.90;;;;;;4936579;29;20270;-79
2023/06/28 11:11:34;;;;;;;27.52;16.25;;;18.10;99.90;;;;;;4918909;29;20199;-80
2023/06/28 11:14:17;;;;;;;27.10;15.57;;;18.00;99.90;;;;;;4902457;29;20207;-80
2023/06/28 11:16:46;;;;;;;23.92;15.93;;;18.10;99.90;;;;;;4936399;29;20175;-86
2023/06/28 11:19:19;;;;;;;27.52;16.17;;;18.10;99.90;;;;;;4936596;29;20167;-82
2023/06/28 11:21:55;;;;;;;21.67;14.93;;;18.00;99.90;;;;;;4919168;29;20186;-82
2023/06/28 11:24:33;;;;;;;23.30;15.00;;;18.10;99.90;;;;;;4936062;29;20224;-80
2023/06/28 11:27:00;;;;;;;25.38;15.82;;;18.10;99.90;;;;;;4931183;29;20172;-82
2023/06/28 11:29:26;;;;;;;26.02;16.73;;;18.10;99.90;;;;;;4887835;29;20215;-83
2023/06/28 11:31:55;;;;;;;26.10;17.13;;;18.10;99.90;;;;;;4919699;29;20184;-81
2023/06/28 11:34:21;;;;;;;25.05;17.00;;;18.10;99.90;;;;;;4919942;29;20194;-81
2023/06/28 11:36:48;;;;;;;24.58;16.55;;;18.10;99.90;;;;;;4933577;29;20310;-82
2023/06/28 11:39:18;;;;;;;23.08;16.58;;;18.10;99.90;;;;;;4903315;29;20274;-81
2023/06/28 11:41:45;;;;;;;32.33;17.23;;;18.10;99.90;;;;;;4919269;29;20163;-82
2023/06/28 11:44:12;;;;;;;25.02;17.23;;;18.10;99.90;;;;;;4932147;29;20235;-82
2023/06/28 11:46:39;;;;;;;37.35;17.85;;;18.10;99.90;;;;;;4932369;29;20195;-82
2023/06/28 11:49:06;;;;;;;25.92;17.90;;;18.10;99.90;;;;;;4905775;29;20544;-82
2023/06/28 11:51:32;;;;;;;27.02;17.63;;;18.10;99.90;;;;;;4899936;29;20279;-81
2023/06/28 11:53:58;;;;;;;30.00;17.92;;;18.10;99.90;;;;;;4884464;29;20192;-82
2023/06/28 11:56:44;;;;;;;27.55;18.17;;;18.10;99.90;;;;;;4934719;29;20194;-83
2023/06/28 11:59:17;;;;;;;25.15;17.77;;;18.10;99.90;;;;;;4884003;29;20214;-84
2023/06/28 12:01:44;;;;;;;26.77;19.17;;;18.10;99.90;;;;;;4906300;29;20183;-79
2023/06/28 12:04:28;;;;;;;31.00;19.88;;;18.10;99.90;;;;;;4902866;29;20203;-82
2023/06/28 12:06:53;;;;;;;29.88;20.08;;;18.10;99.90;;;;;;4901591;29;20631;-81
2023/06/28 12:09:30;;;;;;;30.38;20.05;;;18.10;99.90;;;;;;4923844;29;20270;-82
2023/06/28 12:11:58;;;;;;;29.63;20.45;;;18.10;99.90;;;;;;4898853;29;20182;-82
2023/06/28 12:14:27;;;;;;;33.40;20.27;;;18.10;99.90;;;;;;4934581;29;20187;-83
2023/06/28 12:16:53;;;;;;;30.38;20.08;;;18.10;99.90;;;;;;4918371;29;20274;-82
2023/06/28 12:19:20;;;;;;;30.88;20.33;;;18.20;99.90;;;;;;4912760;29;20265;-83
2023/06/28 12:21:47;;;;;;;27.80;21.15;;;18.20;99.90;;;;;;4913371;29;20219;-81
2023/06/28 12:24:17;;;;;;;28.92;20.40;;;18.20;99.90;;;;;;4884353;29;20351;-83
2023/06/28 12:26:54;;;;;;;32.55;20.13;;;18.20;99.90;;;;;;4917461;29;20271;-82
2023/06/28 12:29:25;;;;;;;32.55;20.58;;;18.20;99.90;;;;;;4915050;29;20555;-82
2023/06/28 12:31:57;;;;;;;29.00;20.33;;;18.30;99.90;;;;;;4917427;29;20629;-83
2023/06/28 12:34:24;;;;;;;33.85;21.70;;;18.30;99.90;;;;;;4916332;29;20223;-81
2023/06/28 12:36:54;;;;;;;31.77;20.73;;;18.40;99.90;;;;;;4888011;29;20228;-82